sensor_id;sensor_type;location;lat;lon;timestamp;pressure;altitude;pressure_sealevel;temperature;humidity
72857;BME280;62742;52.136;4.500;2023-06-19T00:00:59;100803.69;;;21.18;63.90
72857;BME280;62742;52.136;4.500;2023-06-19T00:03:25;100802.72;;;21.33;64.06
72857;BME280;62742;52.136;4.500;2023-06-19T00:05:52;100797.22;;;21.36;65.11
72857;BME280;62742;52.136;4.500;2023-06-19T00:08:18;100797.38;;;21.33;65.62
72857;BME280;62742;52.136;4.500;2023-06-19T00:10:45;100798.31;;;21.18;67.16
72857;BME280;62742;52.136;4.500;2023-06-19T00:13:13;100795.78;;;21.30;66.91
72857;BME280;62742;52.136;4.500;2023-06-19T00:15:40;100791.97;;;21.20;67.61
72857;BME280;62742;52.136;4.500;2023-06-19T00:18:06;100803.91;;;21.29;67.94
72857;BME280;62742;52.136;4.500;2023-06-19T00:20:32;100797.13;;;21.38;67.43
72857;BME280;62742;52.136;4.500;2023-06-19T00:23:00;100804.66;;;21.17;68.46
72857;BME280;62742;52.136;4.500;2023-06-19T00:25:26;100802.34;;;21.10;68.71
72857;BME280;62742;52.136;4.500;2023-06-19T00:27:52;100804.81;;;21.14;68.85
72857;BME280;62742;52.136;4.500;2023-06-19T00:30:18;100806.56;;;21.15;69.01
72857;BME280;62742;52.136;4.500;2023-06-19T00:32:44;100801.53;;;20.94;69.96
72857;BME280;62742;52.136;4.500;2023-06-19T00:35:15;100809.66;;;20.92;70.06
72857;BME280;62742;52.136;4.500;2023-06-19T00:37:44;100811.84;;;20.86;70.75
72857;BME280;62742;52.136;4.500;2023-06-19T00:40:19;100816.38;;;20.84;70.60
72857;BME280;62742;52.136;4.500;2023-06-19T00:42:52;100807.59;;;20.82;70.75
72857;BME280;62742;52.136;4.500;2023-06-19T00:45:18;100806.94;;;20.78;71.38
72857;BME280;62742;52.136;4.500;2023-06-19T00:47:44;100812.31;;;20.62;72.27
72857;BME280;62742;52.136;4.500;2023-06-19T00:50:11;100817.13;;;20.71;71.75
72857;BME280;62742;52.136;4.500;2023-06-19T00:52:38;100819.88;;;20.54;72.87
72857;BME280;62742;52.136;4.500;2023-06-19T00:55:05;100816.59;;;20.65;72.74
72857;BME280;62742;52.136;4.500;2023-06-19T00:57:33;100820.66;;;20.56;73.23
72857;BME280;62742;52.136;4.500;2023-06-19T00:59:59;100822.28;;;20.59;73.61
72857;BME280;62742;52.136;4.500;2023-06-19T01:02:26;100824.78;;;20.78;72.59
72857;BME280;62742;52.136;4.500;2023-06-19T01:04:52;100821.19;;;20.63;72.86
72857;BME280;62742;52.136;4.500;2023-06-19T01:07:43;100811.78;;;20.55;73.80
72857;BME280;62742;52.136;4.500;2023-06-19T01:10:11;100816.78;;;20.46;73.96
72857;BME280;62742;52.136;4.500;2023-06-19T01:12:42;100819.03;;;20.53;73.75
72857;BME280;62742;52.136;4.500;2023-06-19T01:15:16;100817.97;;;20.56;73.93
72857;BME280;62742;52.136;4.500;2023-06-19T01:17:43;100822.63;;;20.52;73.79
72857;BME280;62742;52.136;4.500;2023-06-19T01:20:12;100823.31;;;20.56;74.20
72857;BME280;62742;52.136;4.500;2023-06-19T01:22:40;100822.72;;;20.51;75.25
72857;BME280;62742;52.136;4.500;2023-06-19T01:25:09;100830.72;;;20.51;75.21
72857;BME280;62742;52.136;4.500;2023-06-19T01:27:39;100828.22;;;20.48;75.81
72857;BME280;62742;52.136;4.500;2023-06-19T01:30:07;100819.88;;;20.54;75.49
72857;BME280;62742;52.136;4.500;2023-06-19T01:35:25;100825.53;;;20.17;78.75
72857;BME280;62742;52.136;4.500;2023-06-19T01:37:54;100822.25;;;20.12;79.44
72857;BME280;62742;52.136;4.500;2023-06-19T01:40:21;100820.75;;;20.07;80.37
72857;BME280;62742;52.136;4.500;2023-06-19T01:42:51;100820.00;;;20.05;80.62
72857;BME280;62742;52.136;4.500;2023-06-19T01:45:19;100824.47;;;20.20;80.52
72857;BME280;62742;52.136;4.500;2023-06-19T01:47:45;100820.16;;;20.02;81.58
72857;BME280;62742;52.136;4.500;2023-06-19T01:50:12;100818.53;;;20.15;80.66
72857;BME280;62742;52.136;4.500;2023-06-19T01:52:38;100804.25;;;20.16;79.96
72857;BME280;62742;52.136;4.500;2023-06-19T01:55:05;100809.91;;;20.26;80.66
72857;BME280;62742;52.136;4.500;2023-06-19T01:57:31;100812.00;;;20.36;79.28
72857;BME280;62742;52.136;4.500;2023-06-19T01:59:58;100805.63;;;20.07;81.77
72857;BME280;62742;52.136;4.500;2023-06-19T02:02:25;100807.09;;;20.13;80.33
72857;BME280;62742;52.136;4.500;2023-06-19T02:04:51;100810.97;;;20.07;81.48
72857;BME280;62742;52.136;4.500;2023-06-19T02:07:17;100813.56;;;20.09;81.70
72857;BME280;62742;52.136;4.500;2023-06-19T02:09:44;100809.06;;;20.25;79.89
72857;BME280;62742;52.136;4.500;2023-06-19T02:12:11;100813.28;;;20.29;80.93
72857;BME280;62742;52.136;4.500;2023-06-19T02:14:37;100812.50;;;20.43;80.37
72857;BME280;62742;52.136;4.500;2023-06-19T02:17:03;100812.34;;;20.14;82.20
72857;BME280;62742;52.136;4.500;2023-06-19T02:19:29;100807.94;;;20.13;82.52
72857;BME280;62742;52.136;4.500;2023-06-19T02:21:56;100816.13;;;20.26;82.06
72857;BME280;62742;52.136;4.500;2023-06-19T02:24:22;100807.00;;;20.14;83.06
72857;BME280;62742;52.136;4.500;2023-06-19T02:26:48;100812.00;;;20.36;81.87
72857;BME280;62742;52.136;4.500;2023-06-19T02:29:15;100815.59;;;20.35;82.84
72857;BME280;62742;52.136;4.500;2023-06-19T02:31:42;100812.16;;;20.33;83.26
72857;BME280;62742;52.136;4.500;2023-06-19T02:34:08;100820.41;;;20.29;84.30
72857;BME280;62742;52.136;4.500;2023-06-19T02:36:37;100818.28;;;20.20;85.69
72857;BME280;62742;52.136;4.500;2023-06-19T02:39:04;100827.38;;;19.99;87.56
72857;BME280;62742;52.136;4.500;2023-06-19T02:41:31;100827.38;;;19.99;87.40
72857;BME280;62742;52.136;4.500;2023-06-19T02:43:58;100840.38;;;19.90;88.90
72857;BME280;62742;52.136;4.500;2023-06-19T02:46:25;100853.81;;;20.04;88.34
72857;BME280;62742;52.136;4.500;2023-06-19T02:48:52;100851.75;;;19.93;89.00
72857;BME280;62742;52.136;4.500;2023-06-19T02:51:18;100856.03;;;19.96;89.55
72857;BME280;62742;52.136;4.500;2023-06-19T02:53:44;100860.38;;;19.98;89.15
72857;BME280;62742;52.136;4.500;2023-06-19T02:56:11;100855.50;;;19.89;90.30
72857;BME280;62742;52.136;4.500;2023-06-19T02:58:37;100862.75;;;19.87;90.42
72857;BME280;62742;52.136;4.500;2023-06-19T03:01:04;100868.78;;;19.91;90.36
72857;BME280;62742;52.136;4.500;2023-06-19T03:03:34;100874.19;;;19.89;90.32
72857;BME280;62742;52.136;4.500;2023-06-19T03:06:07;100883.31;;;19.85;90.61
72857;BME280;62742;52.136;4.500;2023-06-19T03:08:34;100887.06;;;19.63;91.94
72857;BME280;62742;52.136;4.500;2023-06-19T03:11:01;100887.06;;;19.63;91.84
72857;BME280;62742;52.136;4.500;2023-06-19T03:13:51;100890.66;;;19.62;92.52
72857;BME280;62742;52.136;4.500;2023-06-19T03:16:17;100889.28;;;19.55;93.21
72857;BME280;62742;52.136;4.500;2023-06-19T03:18:44;100905.13;;;19.41;93.38
72857;BME280;62742;52.136;4.500;2023-06-19T03:21:11;100900.28;;;19.49;94.17
72857;BME280;62742;52.136;4.500;2023-06-19T03:23:41;100910.94;;;19.49;93.97
72857;BME280;62742;52.136;4.500;2023-06-19T03:26:07;100909.69;;;19.39;94.67
72857;BME280;62742;52.136;4.500;2023-06-19T03:28:34;100910.25;;;19.46;94.67
72857;BME280;62742;52.136;4.500;2023-06-19T03:31:00;100913.41;;;19.52;94.06
72857;BME280;62742;52.136;4.500;2023-06-19T03:33:26;100918.31;;;19.44;94.52
72857;BME280;62742;52.136;4.500;2023-06-19T03:35:53;100918.47;;;19.41;94.66
72857;BME280;62742;52.136;4.500;2023-06-19T03:38:19;100924.09;;;19.35;94.58
72857;BME280;62742;52.136;4.500;2023-06-19T03:40:45;100929.50;;;19.33;94.87
72857;BME280;62742;52.136;4.500;2023-06-19T03:43:12;100931.31;;;19.33;95.07
72857;BME280;62742;52.136;4.500;2023-06-19T03:45:38;100934.13;;;19.47;94.14
72857;BME280;62742;52.136;4.500;2023-06-19T03:48:04;100937.56;;;19.32;94.17
72857;BME280;62742;52.136;4.500;2023-06-19T03:50:31;100942.03;;;19.14;94.75
72857;BME280;62742;52.136;4.500;2023-06-19T03:52:57;100949.81;;;19.18;94.65
72857;BME280;62742;52.136;4.500;2023-06-19T03:55:23;100959.03;;;19.11;95.08
72857;BME280;62742;52.136;4.500;2023-06-19T03:57:49;100959.84;;;18.94;96.00
72857;BME280;62742;52.136;4.500;2023-06-19T04:00:16;100965.34;;;18.91;96.47
72857;BME280;62742;52.136;4.500;2023-06-19T04:02:44;100978.66;;;18.72;96.93
72857;BME280;62742;52.136;4.500;2023-06-19T04:05:12;100982.03;;;18.76;96.56
72857;BME280;62742;52.136;4.500;2023-06-19T04:07:39;100975.19;;;18.70;96.40
72857;BME280;62742;52.136;4.500;2023-06-19T04:10:05;100981.31;;;18.72;96.49
72857;BME280;62742;52.136;4.500;2023-06-19T04:12:31;100991.03;;;18.92;94.82
72857;BME280;62742;52.136;4.500;2023-06-19T04:14:58;100993.94;;;18.87;94.72
72857;BME280;62742;52.136;4.500;2023-06-19T04:17:24;100999.50;;;18.81;94.90
72857;BME280;62742;52.136;4.500;2023-06-19T04:19:50;100999.41;;;18.84;94.69
72857;BME280;62742;52.136;4.500;2023-06-19T04:22:16;101002.72;;;18.90;94.32
72857;BME280;62742;52.136;4.500;2023-06-19T04:24:42;101009.91;;;18.87;94.22
72857;BME280;62742;52.136;4.500;2023-06-19T04:27:08;101006.59;;;18.82;93.37
72857;BME280;62742;52.136;4.500;2023-06-19T04:29:35;101011.47;;;18.92;93.25
72857;BME280;62742;52.136;4.500;2023-06-19T04:32:01;101017.63;;;18.73;94.48
72857;BME280;62742;52.136;4.500;2023-06-19T04:34:39;101026.56;;;18.72;94.22
72857;BME280;62742;52.136;4.500;2023-06-19T04:37:07;101026.56;;;18.72;94.80
72857;BME280;62742;52.136;4.500;2023-06-19T04:39:33;101032.50;;;18.98;92.90
72857;BME280;62742;52.136;4.500;2023-06-19T04:42:00;101036.69;;;18.84;93.80
72857;BME280;62742;52.136;4.500;2023-06-19T04:44:27;101036.22;;;18.75;93.96
72857;BME280;62742;52.136;4.500;2023-06-19T04:46:53;101038.94;;;18.73;92.99
72857;BME280;62742;52.136;4.500;2023-06-19T04:49:29;101047.22;;;18.67;94.29
72857;BME280;62742;52.136;4.500;2023-06-19T04:51:56;101051.59;;;18.68;94.87
72857;BME280;62742;52.136;4.500;2023-06-19T04:54:24;101036.34;;;18.72;94.02
72857;BME280;62742;52.136;4.500;2023-06-19T04:56:50;101047.88;;;18.72;93.58
72857;BME280;62742;52.136;4.500;2023-06-19T04:59:17;101054.00;;;18.74;93.44
72857;BME280;62742;52.136;4.500;2023-06-19T05:01:46;101053.56;;;18.83;92.56
72857;BME280;62742;52.136;4.500;2023-06-19T05:04:12;101067.44;;;18.71;93.21
72857;BME280;62742;52.136;4.500;2023-06-19T05:06:42;101072.09;;;18.86;92.15
72857;BME280;62742;52.136;4.500;2023-06-19T05:09:08;101077.81;;;18.77;92.27
72857;BME280;62742;52.136;4.500;2023-06-19T05:11:34;101081.53;;;18.73;92.77
72857;BME280;62742;52.136;4.500;2023-06-19T05:14:01;101083.94;;;18.79;91.61
72857;BME280;62742;52.136;4.500;2023-06-19T05:16:27;101081.25;;;18.79;91.63
72857;BME280;62742;52.136;4.500;2023-06-19T05:18:53;101086.84;;;18.73;91.42
72857;BME280;62742;52.136;4.500;2023-06-19T05:21:19;101093.53;;;18.83;90.62
72857;BME280;62742;52.136;4.500;2023-06-19T05:23:46;101099.38;;;18.71;90.58
72857;BME280;62742;52.136;4.500;2023-06-19T05:26:16;101094.06;;;18.71;90.07
72857;BME280;62742;52.136;4.500;2023-06-19T05:28:43;101104.25;;;18.61;90.86
72857;BME280;62742;52.136;4.500;2023-06-19T05:31:09;101110.06;;;18.50;91.75
72857;BME280;62742;52.136;4.500;2023-06-19T05:33:35;101112.31;;;18.60;91.18
72857;BME280;62742;52.136;4.500;2023-06-19T05:36:01;101120.84;;;18.47;91.63
72857;BME280;62742;52.136;4.500;2023-06-19T05:38:28;101122.59;;;18.48;90.73
72857;BME280;62742;52.136;4.500;2023-06-19T05:40:56;101135.47;;;18.58;90.58
72857;BME280;62742;52.136;4.500;2023-06-19T05:43:22;101124.56;;;18.64;89.20
72857;BME280;62742;52.136;4.500;2023-06-19T05:45:50;101134.16;;;18.47;90.61
72857;BME280;62742;52.136;4.500;2023-06-19T05:48:17;101136.28;;;18.39;89.76
72857;BME280;62742;52.136;4.500;2023-06-19T05:50:43;101139.34;;;18.50;89.12
72857;BME280;62742;52.136;4.500;2023-06-19T05:53:10;101139.59;;;18.44;88.79
72857;BME280;62742;52.136;4.500;2023-06-19T05:55:36;101144.38;;;18.36;89.62
72857;BME280;62742;52.136;4.500;2023-06-19T05:58:02;101148.31;;;18.27;89.62
72857;BME280;62742;52.136;4.500;2023-06-19T06:00:30;101149.69;;;18.16;89.95
72857;BME280;62742;52.136;4.500;2023-06-19T06:02:57;101162.56;;;18.26;88.62
72857;BME280;62742;52.136;4.500;2023-06-19T06:05:27;101159.00;;;18.05;89.15
72857;BME280;62742;52.136;4.500;2023-06-19T06:07:54;101162.59;;;18.04;88.81
72857;BME280;62742;52.136;4.500;2023-06-19T06:10:21;101162.69;;;18.23;87.96
72857;BME280;62742;52.136;4.500;2023-06-19T06:12:48;101167.97;;;18.03;88.15
72857;BME280;62742;52.136;4.500;2023-06-19T06:15:15;101186.19;;;18.12;88.49
72857;BME280;62742;52.136;4.500;2023-06-19T06:17:42;101187.16;;;17.89;86.66
72857;BME280;62742;52.136;4.500;2023-06-19T06:20:09;101195.13;;;17.89;87.78
72857;BME280;62742;52.136;4.500;2023-06-19T06:22:38;101196.00;;;17.89;87.62
72857;BME280;62742;52.136;4.500;2023-06-19T06:25:08;101207.84;;;17.81;88.67
72857;BME280;62742;52.136;4.500;2023-06-19T06:27:38;101198.47;;;17.94;87.79
72857;BME280;62742;52.136;4.500;2023-06-19T06:30:04;101207.00;;;18.02;87.30
72857;BME280;62742;52.136;4.500;2023-06-19T06:32:34;101210.97;;;17.92;88.20
72857;BME280;62742;52.136;4.500;2023-06-19T06:35:00;101215.09;;;17.99;87.43
72857;BME280;62742;52.136;4.500;2023-06-19T06:37:26;101209.91;;;17.96;87.74
72857;BME280;62742;52.136;4.500;2023-06-19T06:39:52;101218.84;;;18.16;87.48
72857;BME280;62742;52.136;4.500;2023-06-19T06:42:21;101218.50;;;18.25;86.03
72857;BME280;62742;52.136;4.500;2023-06-19T06:44:48;101228.50;;;18.18;86.42
72857;BME280;62742;52.136;4.500;2023-06-19T06:47:14;101217.75;;;18.21;86.98
72857;BME280;62742;52.136;4.500;2023-06-19T06:49:41;101224.78;;;18.22;85.09
72857;BME280;62742;52.136;4.500;2023-06-19T06:52:07;101223.47;;;18.32;84.75
72857;BME280;62742;52.136;4.500;2023-06-19T06:54:33;101238.72;;;18.49;84.55
72857;BME280;62742;52.136;4.500;2023-06-19T06:56:59;101240.53;;;18.69;84.52
72857;BME280;62742;52.136;4.500;2023-06-19T06:59:26;101236.91;;;18.72;84.24
72857;BME280;62742;52.136;4.500;2023-06-19T07:01:55;101242.44;;;19.09;82.99
72857;BME280;62742;52.136;4.500;2023-06-19T07:04:24;101243.81;;;19.17;80.93
72857;BME280;62742;52.136;4.500;2023-06-19T07:06:51;101251.78;;;19.17;81.73
72857;BME280;62742;52.136;4.500;2023-06-19T07:09:17;101247.38;;;19.16;81.18
72857;BME280;62742;52.136;4.500;2023-06-19T07:11:44;101257.53;;;19.29;81.97
72857;BME280;62742;52.136;4.500;2023-06-19T07:14:10;101261.75;;;19.33;81.92
72857;BME280;62742;52.136;4.500;2023-06-19T07:16:36;101269.22;;;19.24;82.05
72857;BME280;62742;52.136;4.500;2023-06-19T07:19:02;101263.13;;;19.22;82.17
72857;BME280;62742;52.136;4.500;2023-06-19T07:21:28;101268.75;;;19.35;81.31
72857;BME280;62742;52.136;4.500;2023-06-19T07:23:56;101273.78;;;19.41;81.86
72857;BME280;62742;52.136;4.500;2023-06-19T07:26:23;101278.63;;;19.52;80.55
72857;BME280;62742;52.136;4.500;2023-06-19T07:28:49;101272.63;;;19.47;80.18
72857;BME280;62742;52.136;4.500;2023-06-19T07:31:15;101267.97;;;19.52;79.82
72857;BME280;62742;52.136;4.500;2023-06-19T07:33:42;101267.41;;;19.65;78.82
72857;BME280;62742;52.136;4.500;2023-06-19T07:36:08;101267.25;;;19.68;79.54
72857;BME280;62742;52.136;4.500;2023-06-19T07:38:40;101275.34;;;19.66;79.16
72857;BME280;62742;52.136;4.500;2023-06-19T07:41:06;101286.38;;;19.77;78.53
72857;BME280;62742;52.136;4.500;2023-06-19T07:43:35;101280.44;;;19.71;77.73
72857;BME280;62742;52.136;4.500;2023-06-19T07:46:02;101277.41;;;19.80;78.34
72857;BME280;62742;52.136;4.500;2023-06-19T07:48:28;101271.00;;;20.02;77.90
72857;BME280;62742;52.136;4.500;2023-06-19T07:50:55;101277.06;;;20.42;77.56
72857;BME280;62742;52.136;4.500;2023-06-19T07:53:24;101278.00;;;20.58;77.24
72857;BME280;62742;52.136;4.500;2023-06-19T07:55:51;101282.41;;;20.59;75.67
72857;BME280;62742;52.136;4.500;2023-06-19T07:58:17;101285.94;;;20.42;76.09
72857;BME280;62742;52.136;4.500;2023-06-19T08:00:44;101288.47;;;20.45;75.36
72857;BME280;62742;52.136;4.500;2023-06-19T08:03:17;101290.97;;;20.48;75.97
72857;BME280;62742;52.136;4.500;2023-06-19T08:05:43;101291.53;;;20.55;74.89
72857;BME280;62742;52.136;4.500;2023-06-19T08:08:13;101290.84;;;20.51;73.92
72857;BME280;62742;52.136;4.500;2023-06-19T08:10:43;101295.53;;;20.46;74.90
72857;BME280;62742;52.136;4.500;2023-06-19T08:13:10;101287.91;;;20.56;73.29
72857;BME280;62742;52.136;4.500;2023-06-19T08:15:37;101292.91;;;20.81;72.33
72857;BME280;62742;52.136;4.500;2023-06-19T08:18:03;101299.59;;;20.72;75.53
72857;BME280;62742;52.136;4.500;2023-06-19T08:20:30;101296.75;;;20.93;72.47
72857;BME280;62742;52.136;4.500;2023-06-19T08:22:56;101292.97;;;20.97;71.33
72857;BME280;62742;52.136;4.500;2023-06-19T08:25:22;101297.44;;;21.14;72.45
72857;BME280;62742;52.136;4.500;2023-06-19T08:27:48;101307.75;;;20.87;73.89
72857;BME280;62742;52.136;4.500;2023-06-19T08:30:14;101302.09;;;20.93;72.53
72857;BME280;62742;52.136;4.500;2023-06-19T08:32:43;101309.78;;;21.17;72.94
72857;BME280;62742;52.136;4.500;2023-06-19T08:35:09;101318.34;;;21.23;71.34
72857;BME280;62742;52.136;4.500;2023-06-19T08:37:35;101321.56;;;21.30;71.81
72857;BME280;62742;52.136;4.500;2023-06-19T08:40:02;101327.16;;;21.59;70.59
72857;BME280;62742;52.136;4.500;2023-06-19T08:42:31;101329.63;;;21.79;69.62
72857;BME280;62742;52.136;4.500;2023-06-19T08:44:57;101327.59;;;22.32;67.64
72857;BME280;62742;52.136;4.500;2023-06-19T08:47:28;101330.69;;;22.56;64.89
72857;BME280;62742;52.136;4.500;2023-06-19T08:49:56;101336.22;;;22.53;66.18
72857;BME280;62742;52.136;4.500;2023-06-19T08:52:23;101331.31;;;22.14;67.66
72857;BME280;62742;52.136;4.500;2023-06-19T08:54:50;101331.72;;;22.22;68.06
72857;BME280;62742;52.136;4.500;2023-06-19T08:57:16;101335.53;;;22.02;68.15
72857;BME280;62742;52.136;4.500;2023-06-19T08:59:51;101332.06;;;22.00;69.31
72857;BME280;62742;52.136;4.500;2023-06-19T09:02:17;101334.97;;;21.79;70.56
72857;BME280;62742;52.136;4.500;2023-06-19T09:04:43;101328.00;;;21.93;68.85
72857;BME280;62742;52.136;4.500;2023-06-19T09:07:12;101334.84;;;21.98;68.18
72857;BME280;62742;52.136;4.500;2023-06-19T09:09:46;101328.78;;;21.95;68.36
72857;BME280;62742;52.136;4.500;2023-06-19T09:12:18;101335.69;;;22.31;66.89
72857;BME280;62742;52.136;4.500;2023-06-19T09:14:48;101336.34;;;22.66;66.20
72857;BME280;62742;52.136;4.500;2023-06-19T09:17:32;101338.59;;;22.74;66.00
72857;BME280;62742;52.136;4.500;2023-06-19T09:20:08;101346.31;;;22.94;66.02
72857;BME280;62742;52.136;4.500;2023-06-19T09:22:38;101348.22;;;22.92;65.30
72857;BME280;62742;52.136;4.500;2023-06-19T09:25:08;101353.59;;;22.92;64.59
72857;BME280;62742;52.136;4.500;2023-06-19T09:27:45;101356.56;;;23.02;64.88
72857;BME280;62742;52.136;4.500;2023-06-19T09:30:16;101366.66;;;22.83;63.55
72857;BME280;62742;52.136;4.500;2023-06-19T09:32:45;101363.22;;;22.65;65.39
72857;BME280;62742;52.136;4.500;2023-06-19T09:35:12;101367.34;;;22.40;66.42
72857;BME280;62742;52.136;4.500;2023-06-19T09:37:38;101372.69;;;22.40;66.09
72857;BME280;62742;52.136;4.500;2023-06-19T09:40:08;101365.00;;;22.80;64.84
72857;BME280;62742;52.136;4.500;2023-06-19T09:42:38;101370.06;;;23.17;63.07
72857;BME280;62742;52.136;4.500;2023-06-19T09:45:06;101382.72;;;23.29;62.32
72857;BME280;62742;52.136;4.500;2023-06-19T09:47:35;101378.72;;;23.50;62.21
72857;BME280;62742;52.136;4.500;2023-06-19T09:50:02;101377.84;;;23.36;61.68
72857;BME280;62742;52.136;4.500;2023-06-19T09:52:30;101384.56;;;23.71;61.09
72857;BME280;62742;52.136;4.500;2023-06-19T09:55:01;101389.00;;;24.16;60.44
72857;BME280;62742;52.136;4.500;2023-06-19T09:57:29;101385.13;;;24.20;61.19
72857;BME280;62742;52.136;4.500;2023-06-19T10:00:16;101387.06;;;24.18;62.06
72857;BME280;62742;52.136;4.500;2023-06-19T10:02:48;101383.84;;;24.94;59.19
72857;BME280;62742;52.136;4.500;2023-06-19T10:05:15;101381.81;;;24.98;58.61
72857;BME280;62742;52.136;4.500;2023-06-19T10:07:42;101386.66;;;24.93;57.19
72857;BME280;62742;52.136;4.500;2023-06-19T10:10:12;101385.00;;;24.90;56.76
72857;BME280;62742;52.136;4.500;2023-06-19T10:12:47;101391.94;;;24.94;57.75
72857;BME280;62742;52.136;4.500;2023-06-19T10:20:22;101389.47;;;25.04;56.33
72857;BME280;62742;52.136;4.500;2023-06-19T10:23:11;101386.50;;;25.22;57.24
72857;BME280;62742;52.136;4.500;2023-06-19T10:25:46;101395.03;;;25.41;54.86
72857;BME280;62742;52.136;4.500;2023-06-19T10:28:22;101392.44;;;25.78;55.70
72857;BME280;62742;52.136;4.500;2023-06-19T10:30:58;101393.50;;;26.14;54.84
72857;BME280;62742;52.136;4.500;2023-06-19T10:33:27;101394.09;;;26.30;53.91
72857;BME280;62742;52.136;4.500;2023-06-19T10:35:55;101388.44;;;26.46;53.75
72857;BME280;62742;52.136;4.500;2023-06-19T10:38:21;101389.84;;;25.89;52.88
72857;BME280;62742;52.136;4.500;2023-06-19T10:40:47;101391.13;;;26.09;53.69
72857;BME280;62742;52.136;4.500;2023-06-19T10:43:23;101390.41;;;26.31;53.53
72857;BME280;62742;52.136;4.500;2023-06-19T10:45:51;101388.72;;;26.30;53.47
72857;BME280;62742;52.136;4.500;2023-06-19T10:48:21;101391.13;;;26.22;51.53
72857;BME280;62742;52.136;4.500;2023-06-19T10:50:49;101391.53;;;26.29;53.88
72857;BME280;62742;52.136;4.500;2023-06-19T10:53:23;101382.03;;;26.84;50.96
72857;BME280;62742;52.136;4.500;2023-06-19T10:55:56;101381.59;;;26.54;53.75
72857;BME280;62742;52.136;4.500;2023-06-19T10:58:24;101394.53;;;26.61;52.09
72857;BME280;62742;52.136;4.500;2023-06-19T11:00:51;101380.06;;;27.22;50.23
72857;BME280;62742;52.136;4.500;2023-06-19T11:03:18;101375.47;;;27.80;49.28
72857;BME280;62742;52.136;4.500;2023-06-19T11:05:45;101373.03;;;28.11;47.77
72857;BME280;62742;52.136;4.500;2023-06-19T11:08:17;101369.16;;;28.48;46.82
72857;BME280;62742;52.136;4.500;2023-06-19T11:10:44;101367.91;;;29.05;46.61
72857;BME280;62742;52.136;4.500;2023-06-19T11:13:14;101372.19;;;29.40;44.42
72857;BME280;62742;52.136;4.500;2023-06-19T11:15:41;101365.78;;;29.72;44.90
72857;BME280;62742;52.136;4.500;2023-06-19T11:18:07;101360.22;;;29.43;45.78
72857;BME280;62742;52.136;4.500;2023-06-19T11:20:49;101366.22;;;29.46;45.35
72857;BME280;62742;52.136;4.500;2023-06-19T11:23:17;101358.97;;;29.47;43.70
72857;BME280;62742;52.136;4.500;2023-06-19T11:25:51;101363.72;;;29.34;44.63
72857;BME280;62742;52.136;4.500;2023-06-19T11:28:17;101359.34;;;29.73;42.66
72857;BME280;62742;52.136;4.500;2023-06-19T11:30:43;101359.25;;;29.23;43.93
72857;BME280;62742;52.136;4.500;2023-06-19T11:35:48;101354.75;;;29.33;43.99
72857;BME280;62742;52.136;4.500;2023-06-19T11:38:35;101362.00;;;29.63;42.22
72857;BME280;62742;52.136;4.500;2023-06-19T11:41:02;101364.84;;;29.83;43.47
72857;BME280;62742;52.136;4.500;2023-06-19T11:43:28;101353.44;;;29.79;44.19
72857;BME280;62742;52.136;4.500;2023-06-19T11:46:01;101366.16;;;28.95;44.40
72857;BME280;62742;52.136;4.500;2023-06-19T11:48:29;101373.69;;;29.54;44.95
72857;BME280;62742;52.136;4.500;2023-06-19T11:50:55;101367.94;;;30.19;40.64
72857;BME280;62742;52.136;4.500;2023-06-19T11:53:22;101369.56;;;29.91;41.82
72857;BME280;62742;52.136;4.500;2023-06-19T11:55:50;101378.75;;;30.09;41.46
72857;BME280;62742;52.136;4.500;2023-06-19T11:58:17;101379.22;;;30.14;42.30
72857;BME280;62742;52.136;4.500;2023-06-19T12:00:46;101374.94;;;30.12;41.96
72857;BME280;62742;52.136;4.500;2023-06-19T12:03:13;101368.88;;;30.39;40.25
72857;BME280;62742;52.136;4.500;2023-06-19T12:05:41;101369.97;;;29.76;39.80
72857;BME280;62742;52.136;4.500;2023-06-19T12:08:07;101374.75;;;29.42;42.61
72857;BME280;62742;52.136;4.500;2023-06-19T12:10:33;101374.00;;;29.61;42.54
72857;BME280;62742;52.136;4.500;2023-06-19T12:13:00;101379.81;;;29.77;42.85
72857;BME280;62742;52.136;4.500;2023-06-19T12:15:26;101379.28;;;29.93;42.56
72857;BME280;62742;52.136;4.500;2023-06-19T12:17:53;101372.06;;;30.03;40.32
72857;BME280;62742;52.136;4.500;2023-06-19T12:20:19;101372.81;;;30.35;41.81
72857;BME280;62742;52.136;4.500;2023-06-19T12:22:46;101376.31;;;30.47;42.48
72857;BME280;62742;52.136;4.500;2023-06-19T12:25:12;101380.03;;;30.65;41.25
72857;BME280;62742;52.136;4.500;2023-06-19T12:27:38;101375.66;;;30.14;40.25
72857;BME280;62742;52.136;4.500;2023-06-19T12:30:05;101381.00;;;30.45;41.92
72857;BME280;62742;52.136;4.500;2023-06-19T12:32:31;101377.69;;;30.31;42.57
72857;BME280;62742;52.136;4.500;2023-06-19T12:34:58;101380.75;;;30.07;42.54
72857;BME280;62742;52.136;4.500;2023-06-19T12:37:25;101383.88;;;29.72;41.72
72857;BME280;62742;52.136;4.500;2023-06-19T12:39:55;101386.84;;;29.99;43.10
72857;BME280;62742;52.136;4.500;2023-06-19T12:42:21;101387.19;;;30.66;41.09
72857;BME280;62742;52.136;4.500;2023-06-19T12:44:47;101383.09;;;30.31;42.39
72857;BME280;62742;52.136;4.500;2023-06-19T12:47:13;101386.66;;;29.81;44.92
72857;BME280;62742;52.136;4.500;2023-06-19T12:49:40;101387.25;;;29.33;43.77
72857;BME280;62742;52.136;4.500;2023-06-19T12:52:07;101392.84;;;28.67;45.19
72857;BME280;62742;52.136;4.500;2023-06-19T12:54:34;101392.19;;;28.75;44.81
72857;BME280;62742;52.136;4.500;2023-06-19T12:57:01;101392.34;;;29.26;43.55
72857;BME280;62742;52.136;4.500;2023-06-19T12:59:28;101392.94;;;29.30;44.22
72857;BME280;62742;52.136;4.500;2023-06-19T13:01:55;101388.81;;;28.94;43.48
72857;BME280;62742;52.136;4.500;2023-06-19T13:04:21;101389.44;;;28.42;46.67